デンバー の空港の天気 - METARとTAF

デンバー国際空港 ( KDEN / DEN ) - アメリカ コロラド州デンバー
飛行場実況気象(Metar)
観測時間05/28 03:53 MDT (05/28 09:53 UTC)
風向・風速西南西 4m/s
視程10km以上
天気現象
少しの雲 雲底高度 6710m
気温12.8℃
湿度47%
気圧1003.1hPa
METARKDEN 280953Z 25007KT 10SM FEW220 13/02 A2984 RMK AO2 SLP031 T01280017
過去の天気等 Google飛行場航空写真 Wunderground天気予報

過去48時間のMETAR

飛行場予報(TAF)
発表時間: 5/28 03:08 MDT (5/28 09:08 UTC)
予報対象時間: 28日3時 MDT ~ 29日6時 MDT
風向・風速南西 5m/s
視程10km以上
全天の4割程度の雲 雲底高度 6100m
28日13時 MDT から
風向・風速西 7m/s 瞬間風速 11m/s
視程10km以上
全天の8割程度の雲 雲底高度 4570m
28日20時 MDT から
風向・風速北西 4m/s
視程10km以上
少しの雲 雲底高度 3050m
全天の8割程度の雲 雲底高度 4570m
29日1時 MDT から
風向・風速南南西 4m/s
視程10km以上
全天の4割程度の雲 雲底高度 3050m
全天の8割程度の雲 雲底高度 4570m
KDEN 280908Z 2809/2912 23009KT P6SM SCT200
FM281900 26014G22KT P6SM BKN150
FM290200 31007KT P6SM FEW100 BKN150
FM290700 21007KT P6SM SCT100 BKN150